Historique des stations

Station météo de Romilly-sur-Aigre

Altitude de la station : 111 m







Données météorologiques pour le 28/11/2021
Date
Heure
Températures Humidité Point de rosée Vitesse
du vent
Direction Rafales Windchill Pression Pluviométrie
Cumul
Date
Heure
Températures Humidité Point de rosée Vitesse
du vent
Direction Rafales Windchill Pression Pluviométrie
Cumul
28/11/2021 22:170.7 °C88 %-1.1 °C5 km/hNO11 km/h-1.11007 hPa0.0 mm
28/11/2021 22:120.7 °C88 %-1.0 °C5 km/hNW11 km/h-1.01007 hPa0.0 mm
28/11/2021 22:020.8 °C87 %-1.1 °C5 km/hNO15 km/h-1.11007 hPa0.0 mm
28/11/2021 21:570.8 °C87 %-1.1 °C6 km/hNW15 km/h-1.11006 hPa0.0 mm
28/11/2021 21:520.8 °C87 %-1.1 °C6 km/hNO15 km/h-1.11007 hPa0.0 mm
28/11/2021 21:420.8 °C88 %-1.0 °C8 km/hNW13 km/h-1.01007 hPa0.0 mm
28/11/2021 21:320.8 °C88 %-1.0 °C8 km/hNO13 km/h-1.01007 hPa0.0 mm
28/11/2021 21:270.7 °C88 %-1.0 °C13 km/hNW15 km/h-1.01006 hPa0.0 mm
28/11/2021 21:170.7 °C88 %-1.1 °C10 km/hNO16 km/h-1.11006 hPa0.0 mm
28/11/2021 21:120.7 °C88 %-1.1 °C10 km/hNW19 km/h-1.11006 hPa0.0 mm
28/11/2021 21:020.4 °C89 %-1.2 °C8 km/hNO18 km/h-1.21006 hPa0.0 mm
28/11/2021 20:570.4 °C89 %-1.2 °C8 km/hNW13 km/h-1.21006 hPa0.0 mm
28/11/2021 20:470.4 °C89 %-1.2 °C8 km/hNO15 km/h-1.21006 hPa0.0 mm
28/11/2021 20:420.4 °C89 %-1.2 °C11 km/hONO18 km/h-1.21006 hPa0.0 mm
28/11/2021 20:320.1 °C90 %-1.3 °C8 km/hNO15 km/h-1.31006 hPa0.0 mm
28/11/2021 20:270.1 °C89 %-1.5 °C5 km/hNW15 km/h-1.51006 hPa0.0 mm
28/11/2021 20:170.3 °C89 %-1.3 °C6 km/hNO11 km/h-1.31006 hPa0.0 mm
28/11/2021 20:120.4 °C88 %-1.3 °C11 km/hONO13 km/h-1.31006 hPa0.0 mm
28/11/2021 20:020.7 °C88 %-1.1 °C10 km/hNO16 km/h-1.11006 hPa0.0 mm
28/11/2021 19:570.8 °C88 %-1.0 °C10 km/hNW19 km/h-1.01006 hPa0.0 mm
28/11/2021 19:470.9 °C88 %-0.9 °C10 km/hNO18 km/h-0.91006 hPa0.0 mm
28/11/2021 19:420.9 °C88 %-0.9 °C8 km/hNW16 km/h-0.91006 hPa0.0 mm
28/11/2021 19:321.1 °C88 %-0.7 °C10 km/hNO16 km/h-0.71006 hPa0.0 mm
28/11/2021 19:271.1 °C87 %-0.8 °C5 km/hONO18 km/h-0.81006 hPa0.0 mm
28/11/2021 19:171.2 °C88 %-0.5 °C11 km/hNO19 km/h-0.51006 hPa0.0 mm
28/11/2021 19:121.3 °C88 %-0.5 °C15 km/hNW19 km/h-0.51006 hPa0.0 mm
28/11/2021 19:021.3 °C88 %-0.5 °C11 km/hNO18 km/h-0.51006 hPa0.0 mm
28/11/2021 18:571.2 °C88 %-0.5 °C11 km/hNW18 km/h-0.51006 hPa0.0 mm
28/11/2021 18:471.3 °C88 %-0.4 °C8 km/hNO18 km/h-0.41006 hPa0.0 mm
28/11/2021 18:421.4 °C88 %-0.3 °C3 km/hONO18 km/h-0.31006 hPa0.0 mm
28/11/2021 18:321.7 °C87 %-0.3 °C11 km/hNO21 km/h-0.31006 hPa0.0 mm
28/11/2021 18:271.8 °C87 %-0.1 °C8 km/hNW23 km/h-0.11006 hPa0.0 mm
28/11/2021 18:171.9 °C87 %0.0 °C13 km/hNO24 km/h0.01005 hPa0.0 mm
28/11/2021 18:121.9 °C87 %0.0 °C13 km/hONO23 km/h0.01005 hPa0.0 mm
28/11/2021 18:021.9 °C87 %0.0 °C11 km/hNO19 km/h0.01005 hPa0.0 mm
28/11/2021 17:571.9 °C87 %0.0 °C19 km/hO21 km/h0.01005 hPa0.0 mm
28/11/2021 17:472.1 °C86 %0.0 °C11 km/hNO19 km/h0.01005 hPa0.0 mm
28/11/2021 17:422.1 °C86 %0.0 °C10 km/hO27 km/h0.01005 hPa0.0 mm
28/11/2021 17:322.2 °C86 %0.1 °C13 km/hNO26 km/h0.11005 hPa0.0 mm
28/11/2021 17:272.3 °C86 %0.2 °C16 km/hNW26 km/h0.21005 hPa0.0 mm
28/11/2021 17:172.4 °C86 %0.3 °C13 km/hNO26 km/h0.31005 hPa0.0 mm
28/11/2021 17:122.4 °C86 %0.3 °C8 km/hNW23 km/h0.31005 hPa0.0 mm
28/11/2021 17:022.7 °C86 %0.6 °C15 km/hNO26 km/h0.61005 hPa0.0 mm
28/11/2021 16:572.8 °C86 %0.7 °C16 km/hNW24 km/h0.71005 hPa0.0 mm
28/11/2021 16:472.9 °C86 %0.8 °C16 km/hNO27 km/h0.81005 hPa0.0 mm
28/11/2021 16:423.0 °C86 %0.9 °C15 km/hNW27 km/h0.91005 hPa0.0 mm
28/11/2021 16:323.2 °C85 %0.9 °C16 km/hNO26 km/h0.91005 hPa0.0 mm
28/11/2021 16:273.2 °C85 %0.9 °C11 km/hONO27 km/h0.91004 hPa0.0 mm
28/11/2021 16:173.4 °C84 %0.9 °C18 km/hNO34 km/h0.91004 hPa0.0 mm
28/11/2021 16:123.6 °C84 %1.1 °C27 km/hNNO34 km/h1.11004 hPa0.0 mm
28/11/2021 16:023.9 °C84 %1.5 °C15 km/hNO26 km/h1.51004 hPa0.0 mm
28/11/2021 15:574.2 °C84 %1.8 °C15 km/hONO26 km/h1.81004 hPa0.0 mm
28/11/2021 15:474.6 °C83 %1.9 °C16 km/hNO29 km/h1.91004 hPa0.0 mm
28/11/2021 15:424.7 °C82 %1.9 °C13 km/hONO29 km/h1.91004 hPa0.0 mm
28/11/2021 15:324.9 °C81 %2.0 °C16 km/hNO27 km/h2.01004 hPa0.0 mm
28/11/2021 15:275.1 °C81 %2.1 °C11 km/hONO31 km/h2.11004 hPa0.0 mm
28/11/2021 15:175.6 °C79 %2.3 °C16 km/hNO31 km/h2.31004 hPa0.0 mm
28/11/2021 15:125.8 °C82 %3.0 °C16 km/hNW26 km/h3.01004 hPa0.0 mm
28/11/2021 15:025.7 °C81 %2.7 °C18 km/hNO31 km/h2.71004 hPa0.0 mm
28/11/2021 14:575.7 °C81 %2.7 °C16 km/hNW31 km/h2.71004 hPa0.0 mm
28/11/2021 14:475.8 °C82 %3.0 °C13 km/hNO23 km/h3.01004 hPa0.0 mm
28/11/2021 14:425.7 °C81 %2.7 °C6 km/hONO26 km/h2.71004 hPa0.0 mm
28/11/2021 14:326.1 °C81 %3.0 °C16 km/hNO29 km/h3.01004 hPa0.0 mm
28/11/2021 14:276.1 °C82 %3.3 °C5 km/hONO31 km/h3.31004 hPa0.0 mm
28/11/2021 14:176.2 °C80 %3.0 °C15 km/hNO27 km/h3.01004 hPa0.0 mm
28/11/2021 14:126.3 °C80 %3.1 °C13 km/hNW29 km/h3.11004 hPa0.0 mm
28/11/2021 14:026.1 °C82 %3.2 °C11 km/hNO26 km/h3.21004 hPa0.0 mm
28/11/2021 13:575.8 °C80 %2.6 °C13 km/hO23 km/h2.61004 hPa0.0 mm
28/11/2021 13:475.5 °C79 %2.1 °C13 km/hNNO27 km/h2.11004 hPa0.0 mm
28/11/2021 13:425.3 °C79 %2.0 °C10 km/hN34 km/h2.01004 hPa0.0 mm
28/11/2021 13:325.4 °C80 %2.3 °C16 km/hNNO35 km/h2.31004 hPa0.0 mm
28/11/2021 13:275.6 °C80 %2.4 °C8 km/hNNO27 km/h2.41004 hPa0.0 mm
28/11/2021 13:175.4 °C80 %2.2 °C15 km/hNO27 km/h2.21004 hPa0.0 mm
28/11/2021 13:125.3 °C82 %2.5 °C19 km/hNNO26 km/h2.51004 hPa0.0 mm
28/11/2021 13:025.3 °C81 %2.3 °C15 km/hNO24 km/h2.31004 hPa0.0 mm
28/11/2021 12:575.3 °C82 %2.5 °C21 km/hNW29 km/h2.51004 hPa0.0 mm
28/11/2021 12:475.4 °C83 %2.8 °C13 km/hNNO26 km/h2.81004 hPa0.0 mm
28/11/2021 12:425.3 °C83 %2.6 °C11 km/hNW29 km/h2.61004 hPa0.0 mm
28/11/2021 12:324.9 °C84 %2.5 °C15 km/hNNO27 km/h2.51004 hPa0.0 mm
28/11/2021 12:274.8 °C84 %2.4 °C15 km/hNW35 km/h2.41004 hPa0.0 mm
28/11/2021 12:174.7 °C85 %2.4 °C11 km/hNO19 km/h2.41004 hPa0.0 mm
28/11/2021 12:124.7 °C84 %2.2 °C13 km/hNW24 km/h2.21004 hPa0.0 mm
28/11/2021 12:024.7 °C84 %2.2 °C16 km/hNO29 km/h2.21004 hPa0.0 mm
28/11/2021 11:574.7 °C85 %2.4 °C23 km/hONO32 km/h2.41004 hPa0.0 mm
28/11/2021 11:474.6 °C86 %2.5 °C13 km/hNO24 km/h2.51004 hPa0.0 mm
28/11/2021 11:424.6 °C86 %2.5 °C19 km/hNW24 km/h2.51004 hPa0.0 mm
28/11/2021 11:324.6 °C86 %2.5 °C16 km/hNO32 km/h2.51004 hPa0.0 mm
28/11/2021 11:274.5 °C86 %2.4 °C13 km/hNW32 km/h2.41004 hPa0.0 mm
28/11/2021 11:174.4 °C87 %2.4 °C13 km/hNO24 km/h2.41004 hPa0.0 mm
28/11/2021 11:124.4 °C85 %2.1 °C24 km/hO31 km/h2.11004 hPa0.0 mm
28/11/2021 11:024.6 °C87 %2.6 °C18 km/hNO32 km/h2.61004 hPa0.0 mm
28/11/2021 10:574.5 °C87 %2.5 °C29 km/hNNO35 km/h2.51004 hPa0.0 mm
28/11/2021 10:474.2 °C87 %2.2 °C16 km/hNO35 km/h2.21004 hPa0.0 mm
28/11/2021 10:424.1 °C88 %2.3 °C18 km/hNNO29 km/h2.31004 hPa0.0 mm
28/11/2021 10:324.1 °C89 %2.4 °C13 km/hNO24 km/h2.41004 hPa0.0 mm
28/11/2021 10:274.0 °C90 %2.5 °C23 km/hNW24 km/h2.51004 hPa0.0 mm
28/11/2021 10:174.1 °C89 %2.5 °C15 km/hNO29 km/h2.51004 hPa0.0 mm
28/11/2021 10:124.2 °C88 %2.4 °C16 km/hNW29 km/h2.41004 hPa0.0 mm
28/11/2021 10:024.1 °C88 %2.2 °C16 km/hNO34 km/h2.21004 hPa0.0 mm
28/11/2021 09:574.0 °C88 %2.2 °C10 km/hNNO27 km/h2.21004 hPa0.0 mm
28/11/2021 09:473.9 °C88 %2.1 °C15 km/hNO24 km/h2.11003 hPa0.0 mm
28/11/2021 09:423.9 °C88 %2.1 °C6 km/hONO24 km/h2.11003 hPa0.0 mm
28/11/2021 09:323.8 °C89 %2.1 °C11 km/hNO23 km/h2.11003 hPa0.0 mm
28/11/2021 09:273.7 °C89 %2.1 °C8 km/hNW27 km/h2.11003 hPa0.0 mm
28/11/2021 09:173.7 °C89 %2.0 °C15 km/hNO29 km/h2.01003 hPa0.0 mm
28/11/2021 09:123.7 °C89 %2.0 °C15 km/hNNO24 km/h2.01003 hPa0.0 mm
28/11/2021 09:023.7 °C89 %2.0 °C13 km/hNO26 km/h2.01003 hPa0.0 mm
28/11/2021 08:573.7 °C89 %2.1 °C8 km/hNW26 km/h2.11003 hPa2.6 mm
28/11/2021 08:473.6 °C89 %2.0 °C15 km/hNO27 km/h2.01003 hPa2.6 mm
28/11/2021 08:423.6 °C89 %2.0 °C13 km/hNW27 km/h2.01003 hPa2.6 mm
28/11/2021 08:323.6 °C90 %2.1 °C11 km/hNO24 km/h2.11002 hPa2.6 mm
28/11/2021 08:273.5 °C91 %2.2 °C8 km/hNNO19 km/h2.21002 hPa2.6 mm
28/11/2021 08:173.6 °C90 %2.1 °C11 km/hNO26 km/h2.11002 hPa2.6 mm
28/11/2021 08:123.6 °C90 %2.1 °C8 km/hNW26 km/h2.11002 hPa2.6 mm
28/11/2021 08:023.6 °C90 %2.1 °C13 km/hNO21 km/h2.11002 hPa2.6 mm
28/11/2021 07:573.5 °C90 %2.0 °C18 km/hONO21 km/h2.01002 hPa2.6 mm
28/11/2021 07:473.5 °C91 %2.2 °C11 km/hNO23 km/h2.21002 hPa2.6 mm
28/11/2021 07:423.6 °C90 %2.1 °C13 km/hNW21 km/h2.11002 hPa2.6 mm
28/11/2021 07:323.5 °C91 %2.2 °C13 km/hNO29 km/h2.21002 hPa2.6 mm
28/11/2021 07:273.6 °C90 %2.1 °C11 km/hONO29 km/h2.11002 hPa2.6 mm
28/11/2021 07:173.7 °C90 %2.2 °C15 km/hNO23 km/h2.21002 hPa2.6 mm
28/11/2021 07:123.7 °C90 %2.2 °C15 km/hNNO23 km/h2.21002 hPa2.6 mm
28/11/2021 07:023.7 °C89 %2.0 °C16 km/hNO24 km/h2.01002 hPa2.6 mm
28/11/2021 06:573.7 °C89 %2.1 °C16 km/hNNO24 km/h2.11002 hPa2.6 mm
28/11/2021 06:473.8 °C89 %2.1 °C15 km/hNO29 km/h2.11001 hPa2.6 mm
28/11/2021 06:423.7 °C89 %2.1 °C15 km/hNW29 km/h2.11002 hPa2.6 mm
28/11/2021 06:323.7 °C89 %2.1 °C16 km/hNO29 km/h2.11001 hPa2.6 mm
28/11/2021 06:273.7 °C89 %2.1 °C6 km/hNW29 km/h2.11001 hPa2.6 mm
28/11/2021 06:173.7 °C89 %2.0 °C16 km/hNO26 km/h2.01001 hPa2.6 mm
28/11/2021 06:123.7 °C89 %2.0 °C10 km/hNNO32 km/h2.01001 hPa2.6 mm
28/11/2021 06:023.6 °C89 %2.0 °C15 km/hNO27 km/h2.01001 hPa2.6 mm
28/11/2021 05:573.6 °C89 %1.9 °C13 km/hNW24 km/h1.91001 hPa2.6 mm
28/11/2021 05:473.5 °C90 %2.0 °C16 km/hNO26 km/h2.01001 hPa2.6 mm
28/11/2021 05:423.4 °C90 %2.0 °C15 km/hNW27 km/h2.01001 hPa2.6 mm
28/11/2021 05:323.3 °C90 %1.8 °C15 km/hNO31 km/h1.81001 hPa2.6 mm
28/11/2021 05:273.3 °C90 %1.8 °C8 km/hONO31 km/h1.81001 hPa2.6 mm
28/11/2021 05:173.3 °C91 %1.9 °C15 km/hNO26 km/h1.91001 hPa2.6 mm
28/11/2021 05:123.3 °C91 %1.9 °C11 km/hONO29 km/h1.91001 hPa2.6 mm
28/11/2021 05:023.2 °C91 %1.9 °C13 km/hNO23 km/h1.91001 hPa2.6 mm
28/11/2021 04:573.2 °C91 %1.9 °C15 km/hNNO24 km/h1.91001 hPa2.6 mm
28/11/2021 04:473.3 °C91 %1.9 °C15 km/hNO27 km/h1.91001 hPa2.6 mm
28/11/2021 04:423.3 °C91 %1.9 °C16 km/hONO23 km/h1.91001 hPa2.6 mm
28/11/2021 04:323.3 °C91 %2.0 °C15 km/hNO26 km/h2.01001 hPa2.6 mm
28/11/2021 04:273.4 °C91 %2.1 °C11 km/hONO26 km/h2.11001 hPa2.6 mm
28/11/2021 04:173.4 °C91 %2.1 °C13 km/hNO24 km/h2.11001 hPa2.6 mm
28/11/2021 04:123.4 °C91 %2.1 °C8 km/hNW24 km/h2.11001 hPa2.6 mm
28/11/2021 04:023.4 °C92 %2.2 °C16 km/hNO27 km/h2.21001 hPa2.6 mm
28/11/2021 03:573.4 °C92 %2.2 °C11 km/hNW29 km/h2.21001 hPa2.6 mm
28/11/2021 03:473.4 °C92 %2.2 °C16 km/hNO26 km/h2.21001 hPa2.6 mm
28/11/2021 03:423.4 °C92 %2.3 °C8 km/hONO27 km/h2.31001 hPa2.6 mm
28/11/2021 03:323.6 °C91 %2.2 °C15 km/hNO24 km/h2.21001 hPa2.6 mm
28/11/2021 03:273.6 °C92 %2.4 °C13 km/hNW32 km/h2.41001 hPa2.6 mm
28/11/2021 03:173.5 °C92 %2.3 °C15 km/hNO26 km/h2.31001 hPa2.6 mm
28/11/2021 03:123.6 °C92 %2.4 °C18 km/hONO29 km/h2.41001 hPa2.6 mm
28/11/2021 03:023.6 °C92 %2.4 °C18 km/hNO27 km/h2.41001 hPa2.6 mm
28/11/2021 02:573.7 °C91 %2.3 °C21 km/hNW35 km/h2.31001 hPa2.6 mm
28/11/2021 02:473.7 °C91 %2.3 °C16 km/hNO31 km/h2.31000 hPa2.6 mm
28/11/2021 02:423.7 °C91 %2.3 °C18 km/hONO31 km/h2.31000 hPa2.6 mm
28/11/2021 02:323.7 °C91 %2.4 °C18 km/hNO31 km/h2.41000 hPa2.6 mm
28/11/2021 02:273.7 °C91 %2.3 °C19 km/hNW32 km/h2.31000 hPa2.6 mm
28/11/2021 02:173.7 °C92 %2.5 °C16 km/hNO29 km/h2.51000 hPa2.6 mm
28/11/2021 02:123.7 °C92 %2.5 °C19 km/hNW24 km/h2.51000 hPa2.6 mm
28/11/2021 02:023.8 °C92 %2.6 °C15 km/hNO29 km/h2.61000 hPa2.6 mm
28/11/2021 01:573.8 °C91 %2.5 °C23 km/hNW26 km/h2.51000 hPa2.6 mm
28/11/2021 01:473.9 °C91 %2.6 °C13 km/hNO24 km/h2.61000 hPa2.6 mm
28/11/2021 01:423.9 °C91 %2.6 °C8 km/hNW26 km/h2.61000 hPa2.6 mm
28/11/2021 01:324.0 °C90 %2.5 °C15 km/hNO29 km/h2.51000 hPa2.6 mm
28/11/2021 01:274.0 °C90 %2.5 °C11 km/hOSO29 km/h2.51000 hPa2.6 mm
28/11/2021 01:174.0 °C91 %2.7 °C16 km/hNO29 km/h2.71000 hPa2.6 mm
28/11/2021 01:124.1 °C91 %2.7 °C13 km/hNW27 km/h2.71000 hPa2.6 mm
28/11/2021 01:024.2 °C91 %2.8 °C16 km/hNO29 km/h2.81000 hPa2.6 mm
28/11/2021 00:574.2 °C90 %2.7 °C10 km/hNW26 km/h2.71000 hPa2.6 mm
28/11/2021 00:474.2 °C90 %2.7 °C16 km/hNO31 km/h2.71000 hPa2.6 mm
28/11/2021 00:424.3 °C90 %2.8 °C13 km/hNNO31 km/h2.81000 hPa2.6 mm
28/11/2021 00:324.3 °C90 %2.8 °C15 km/hNO29 km/h2.81000 hPa2.6 mm
28/11/2021 00:274.3 °C90 %2.8 °C16 km/hONO29 km/h2.8999 hPa2.6 mm
28/11/2021 00:174.3 °C90 %2.8 °C15 km/hNO27 km/h2.8999 hPa2.6 mm
28/11/2021 00:124.3 °C90 %2.8 °C15 km/hNW31 km/h2.8999 hPa2.6 mm
28/11/2021 00:014.3 °C90 %2.8 °C15 km/hNO29 km/h2.8999 hPa2.6 mm


Minima :

Température : 0.1 °C
Humidité : 79 %
Point de rosée : -1.5 °C
Vent moyen : 3 km/h
Windchill : -1.5
Pression atm. : 999 hPa
Maxima :

Température : 6.3 °C
Humidité : 92 %
Point de rosée : 3.3 °C
Vent moyen : 29 km/h
Windchill : 3.3
Pression atm. : 1007 hPa
Rafales max : 35 km/h
Cumul de pluie sur 24H : 2.6 mm

Romilly-sur-Aigre est une commune du département Eure-et-Loir (28).
La station météorologique du réseau de l'association la plus proche de Romilly-sur-Aigre est celle de Mainvilliers
Site du propriétaire de la station : http://www.sohade.fr



Icône Facebook Association Météo Centre Icône Twitter Association Météo Centre Icône Chaîne Youtube Association Météo Centre Icône contact Association Météo Centre Icône Insta Association Météo Centre